sensor_id;sensor_type;location;lat;lon;timestamp;P1;durP1;ratioP1;P2;durP2;ratioP2
5791;SDS011;2922;53.482;10.006;2023-11-19T00:02:06;10.67;;;5.47;;
5791;SDS011;2922;53.482;10.006;2023-11-19T00:04:33;10.10;;;5.60;;
5791;SDS011;2922;53.482;10.006;2023-11-19T00:07:04;12.30;;;5.60;;
5791;SDS011;2922;53.482;10.006;2023-11-19T00:09:31;8.50;;;4.77;;
5791;SDS011;2922;53.482;10.006;2023-11-19T00:12:01;8.90;;;5.03;;
5791;SDS011;2922;53.482;10.006;2023-11-19T00:14:27;7.60;;;4.93;;
5791;SDS011;2922;53.482;10.006;2023-11-19T00:16:54;11.47;;;5.13;;
5791;SDS011;2922;53.482;10.006;2023-11-19T00:19:19;12.93;;;5.20;;
5791;SDS011;2922;53.482;10.006;2023-11-19T00:21:45;8.47;;;4.17;;
5791;SDS011;2922;53.482;10.006;2023-11-19T00:24:11;9.27;;;4.80;;
5791;SDS011;2922;53.482;10.006;2023-11-19T00:26:37;9.90;;;4.80;;
5791;SDS011;2922;53.482;10.006;2023-11-19T00:29:03;7.07;;;4.10;;
5791;SDS011;2922;53.482;10.006;2023-11-19T00:31:29;7.40;;;4.27;;
5791;SDS011;2922;53.482;10.006;2023-11-19T00:33:55;8.53;;;4.30;;
5791;SDS011;2922;53.482;10.006;2023-11-19T00:36:20;10.97;;;4.50;;
5791;SDS011;2922;53.482;10.006;2023-11-19T00:38:46;7.70;;;4.00;;
5791;SDS011;2922;53.482;10.006;2023-11-19T00:41:11;8.87;;;3.87;;
5791;SDS011;2922;53.482;10.006;2023-11-19T00:43:37;8.97;;;3.97;;
5791;SDS011;2922;53.482;10.006;2023-11-19T00:46:03;7.20;;;4.00;;
5791;SDS011;2922;53.482;10.006;2023-11-19T00:48:32;8.73;;;3.97;;
5791;SDS011;2922;53.482;10.006;2023-11-19T00:50:57;7.90;;;3.87;;
5791;SDS011;2922;53.482;10.006;2023-11-19T00:53:23;6.40;;;3.37;;
5791;SDS011;2922;53.482;10.006;2023-11-19T00:55:48;5.77;;;3.03;;
5791;SDS011;2922;53.482;10.006;2023-11-19T00:58:14;5.67;;;3.00;;
5791;SDS011;2922;53.482;10.006;2023-11-19T01:00:39;4.80;;;3.30;;
5791;SDS011;2922;53.482;10.006;2023-11-19T01:03:05;5.77;;;3.33;;
5791;SDS011;2922;53.482;10.006;2023-11-19T01:05:32;4.60;;;3.20;;
5791;SDS011;2922;53.482;10.006;2023-11-19T01:07:58;4.03;;;2.40;;
5791;SDS011;2922;53.482;10.006;2023-11-19T01:10:23;5.30;;;2.80;;
5791;SDS011;2922;53.482;10.006;2023-11-19T01:12:50;5.00;;;3.10;;
5791;SDS011;2922;53.482;10.006;2023-11-19T01:15:17;5.43;;;2.70;;
5791;SDS011;2922;53.482;10.006;2023-11-19T01:17:43;3.00;;;2.10;;
5791;SDS011;2922;53.482;10.006;2023-11-19T01:20:09;4.57;;;2.50;;
5791;SDS011;2922;53.482;10.006;2023-11-19T01:22:38;3.80;;;2.57;;
5791;SDS011;2922;53.482;10.006;2023-11-19T01:25:03;3.03;;;2.23;;
5791;SDS011;2922;53.482;10.006;2023-11-19T01:27:30;5.40;;;2.30;;
5791;SDS011;2922;53.482;10.006;2023-11-19T01:29:56;3.57;;;2.10;;
5791;SDS011;2922;53.482;10.006;2023-11-19T01:32:22;2.90;;;1.80;;
5791;SDS011;2922;53.482;10.006;2023-11-19T01:34:49;4.43;;;2.83;;
5791;SDS011;2922;53.482;10.006;2023-11-19T01:37:14;5.43;;;2.07;;
5791;SDS011;2922;53.482;10.006;2023-11-19T01:39:43;2.87;;;1.67;;
5791;SDS011;2922;53.482;10.006;2023-11-19T01:42:09;3.10;;;1.83;;
5791;SDS011;2922;53.482;10.006;2023-11-19T01:44:36;2.93;;;1.83;;
5791;SDS011;2922;53.482;10.006;2023-11-19T01:47:02;2.90;;;1.77;;
5791;SDS011;2922;53.482;10.006;2023-11-19T01:49:29;3.17;;;1.50;;
5791;SDS011;2922;53.482;10.006;2023-11-19T01:51:56;1.97;;;1.77;;
5791;SDS011;2922;53.482;10.006;2023-11-19T01:54:22;2.40;;;1.60;;
5791;SDS011;2922;53.482;10.006;2023-11-19T01:56:48;2.00;;;1.83;;
5791;SDS011;2922;53.482;10.006;2023-11-19T01:59:14;2.60;;;1.63;;
5791;SDS011;2922;53.482;10.006;2023-11-19T02:01:41;1.50;;;1.30;;
5791;SDS011;2922;53.482;10.006;2023-11-19T02:04:07;1.73;;;1.27;;
5791;SDS011;2922;53.482;10.006;2023-11-19T02:06:34;1.70;;;1.30;;
5791;SDS011;2922;53.482;10.006;2023-11-19T02:09:05;1.20;;;1.10;;
5791;SDS011;2922;53.482;10.006;2023-11-19T02:11:33;1.87;;;1.20;;
5791;SDS011;2922;53.482;10.006;2023-11-19T02:14:00;1.27;;;1.17;;
5791;SDS011;2922;53.482;10.006;2023-11-19T02:16:26;1.43;;;1.33;;
5791;SDS011;2922;53.482;10.006;2023-11-19T02:18:51;1.30;;;1.10;;
5791;SDS011;2922;53.482;10.006;2023-11-19T02:21:17;1.10;;;1.00;;
5791;SDS011;2922;53.482;10.006;2023-11-19T02:23:43;2.27;;;1.30;;
5791;SDS011;2922;53.482;10.006;2023-11-19T02:28:46;1.43;;;1.20;;
5791;SDS011;2922;53.482;10.006;2023-11-19T02:31:12;1.37;;;1.27;;
5791;SDS011;2922;53.482;10.006;2023-11-19T02:33:37;1.20;;;1.10;;
5791;SDS011;2922;53.482;10.006;2023-11-19T02:36:04;1.30;;;1.20;;
5791;SDS011;2922;53.482;10.006;2023-11-19T02:38:31;1.00;;;0.90;;
5791;SDS011;2922;53.482;10.006;2023-11-19T02:40:58;1.20;;;1.00;;
5791;SDS011;2922;53.482;10.006;2023-11-19T02:43:23;1.50;;;1.33;;
5791;SDS011;2922;53.482;10.006;2023-11-19T02:45:49;1.60;;;1.33;;
5791;SDS011;2922;53.482;10.006;2023-11-19T02:48:15;1.47;;;1.17;;
5791;SDS011;2922;53.482;10.006;2023-11-19T02:50:44;2.40;;;1.30;;
5791;SDS011;2922;53.482;10.006;2023-11-19T02:53:09;5.03;;;1.50;;
5791;SDS011;2922;53.482;10.006;2023-11-19T02:55:35;1.33;;;1.23;;
5791;SDS011;2922;53.482;10.006;2023-11-19T02:58:03;1.43;;;1.33;;
5791;SDS011;2922;53.482;10.006;2023-11-19T03:00:44;2.20;;;1.73;;
5791;SDS011;2922;53.482;10.006;2023-11-19T03:03:19;3.00;;;1.53;;
5791;SDS011;2922;53.482;10.006;2023-11-19T03:05:48;1.20;;;1.00;;
5791;SDS011;2922;53.482;10.006;2023-11-19T03:08:17;1.40;;;1.13;;
5791;SDS011;2922;53.482;10.006;2023-11-19T03:10:43;1.53;;;1.43;;
5791;SDS011;2922;53.482;10.006;2023-11-19T03:13:12;1.57;;;1.47;;
5791;SDS011;2922;53.482;10.006;2023-11-19T03:15:39;2.80;;;1.20;;
5791;SDS011;2922;53.482;10.006;2023-11-19T03:18:05;1.47;;;1.37;;
5791;SDS011;2922;53.482;10.006;2023-11-19T03:20:30;1.60;;;1.40;;
5791;SDS011;2922;53.482;10.006;2023-11-19T03:22:56;1.37;;;1.27;;
5791;SDS011;2922;53.482;10.006;2023-11-19T03:25:26;3.30;;;1.73;;
5791;SDS011;2922;53.482;10.006;2023-11-19T03:27:57;1.30;;;1.20;;
5791;SDS011;2922;53.482;10.006;2023-11-19T03:30:23;1.60;;;1.27;;
5791;SDS011;2922;53.482;10.006;2023-11-19T03:32:49;2.27;;;1.60;;
5791;SDS011;2922;53.482;10.006;2023-11-19T03:35:15;1.67;;;1.37;;
5791;SDS011;2922;53.482;10.006;2023-11-19T03:37:41;2.70;;;1.60;;
5791;SDS011;2922;53.482;10.006;2023-11-19T03:40:08;1.53;;;1.40;;
5791;SDS011;2922;53.482;10.006;2023-11-19T03:42:35;1.63;;;1.37;;
5791;SDS011;2922;53.482;10.006;2023-11-19T03:45:01;1.80;;;1.23;;
5791;SDS011;2922;53.482;10.006;2023-11-19T03:47:28;3.00;;;1.70;;
5791;SDS011;2922;53.482;10.006;2023-11-19T03:49:54;1.60;;;1.47;;
5791;SDS011;2922;53.482;10.006;2023-11-19T03:52:19;1.80;;;1.60;;
5791;SDS011;2922;53.482;10.006;2023-11-19T03:54:45;1.70;;;1.33;;
5791;SDS011;2922;53.482;10.006;2023-11-19T03:57:12;2.20;;;1.70;;
5791;SDS011;2922;53.482;10.006;2023-11-19T03:59:38;2.63;;;1.50;;
5791;SDS011;2922;53.482;10.006;2023-11-19T04:02:04;1.70;;;1.60;;
5791;SDS011;2922;53.482;10.006;2023-11-19T04:04:29;2.17;;;1.83;;
5791;SDS011;2922;53.482;10.006;2023-11-19T04:06:55;2.00;;;1.60;;
5791;SDS011;2922;53.482;10.006;2023-11-19T04:09:21;2.33;;;1.77;;
5791;SDS011;2922;53.482;10.006;2023-11-19T04:11:47;1.90;;;1.70;;
5791;SDS011;2922;53.482;10.006;2023-11-19T04:14:13;1.80;;;1.50;;
5791;SDS011;2922;53.482;10.006;2023-11-19T04:16:39;1.70;;;1.50;;
5791;SDS011;2922;53.482;10.006;2023-11-19T04:19:05;1.87;;;1.60;;
5791;SDS011;2922;53.482;10.006;2023-11-19T04:21:31;2.07;;;1.67;;
5791;SDS011;2922;53.482;10.006;2023-11-19T04:23:57;3.30;;;2.10;;
5791;SDS011;2922;53.482;10.006;2023-11-19T04:26:23;2.87;;;1.73;;
5791;SDS011;2922;53.482;10.006;2023-11-19T04:28:49;5.87;;;2.90;;
5791;SDS011;2922;53.482;10.006;2023-11-19T04:31:15;2.90;;;2.07;;
5791;SDS011;2922;53.482;10.006;2023-11-19T04:33:44;2.70;;;1.90;;
5791;SDS011;2922;53.482;10.006;2023-11-19T04:36:12;2.17;;;1.67;;
5791;SDS011;2922;53.482;10.006;2023-11-19T04:38:39;3.60;;;2.30;;
5791;SDS011;2922;53.482;10.006;2023-11-19T04:41:05;4.03;;;2.10;;
5791;SDS011;2922;53.482;10.006;2023-11-19T04:43:31;8.03;;;2.00;;
5791;SDS011;2922;53.482;10.006;2023-11-19T04:45:57;4.10;;;2.67;;
5791;SDS011;2922;53.482;10.006;2023-11-19T04:48:23;4.07;;;2.33;;
5791;SDS011;2922;53.482;10.006;2023-11-19T04:50:49;3.80;;;2.43;;
5791;SDS011;2922;53.482;10.006;2023-11-19T04:53:16;4.70;;;2.70;;
5791;SDS011;2922;53.482;10.006;2023-11-19T04:55:42;4.70;;;2.80;;
5791;SDS011;2922;53.482;10.006;2023-11-19T04:58:07;7.03;;;2.97;;
5791;SDS011;2922;53.482;10.006;2023-11-19T05:00:33;5.10;;;3.23;;
5791;SDS011;2922;53.482;10.006;2023-11-19T05:02:58;5.20;;;2.93;;
5791;SDS011;2922;53.482;10.006;2023-11-19T05:05:24;4.37;;;2.70;;
5791;SDS011;2922;53.482;10.006;2023-11-19T05:07:49;5.77;;;3.37;;
5791;SDS011;2922;53.482;10.006;2023-11-19T05:10:15;6.40;;;3.73;;
5791;SDS011;2922;53.482;10.006;2023-11-19T05:12:41;11.70;;;4.80;;
5791;SDS011;2922;53.482;10.006;2023-11-19T05:15:06;9.50;;;4.70;;
5791;SDS011;2922;53.482;10.006;2023-11-19T05:17:33;16.10;;;5.10;;
5791;SDS011;2922;53.482;10.006;2023-11-19T05:19:59;23.50;;;8.57;;
5791;SDS011;2922;53.482;10.006;2023-11-19T05:22:24;28.23;;;8.83;;
5791;SDS011;2922;53.482;10.006;2023-11-19T05:24:51;29.10;;;11.67;;
5791;SDS011;2922;53.482;10.006;2023-11-19T05:27:17;39.40;;;12.50;;
5791;SDS011;2922;53.482;10.006;2023-11-19T05:29:42;36.60;;;11.87;;
5791;SDS011;2922;53.482;10.006;2023-11-19T05:32:09;34.97;;;10.77;;
5791;SDS011;2922;53.482;10.006;2023-11-19T05:34:35;34.07;;;12.60;;
5791;SDS011;2922;53.482;10.006;2023-11-19T05:37:00;38.03;;;10.77;;
5791;SDS011;2922;53.482;10.006;2023-11-19T05:39:27;34.67;;;11.77;;
5791;SDS011;2922;53.482;10.006;2023-11-19T05:41:52;38.40;;;11.30;;
5791;SDS011;2922;53.482;10.006;2023-11-19T05:44:18;34.40;;;11.77;;
5791;SDS011;2922;53.482;10.006;2023-11-19T05:46:44;30.10;;;11.50;;
5791;SDS011;2922;53.482;10.006;2023-11-19T05:49:10;35.70;;;11.30;;
5791;SDS011;2922;53.482;10.006;2023-11-19T05:51:40;34.53;;;10.80;;
5791;SDS011;2922;53.482;10.006;2023-11-19T05:54:08;38.40;;;11.60;;
5791;SDS011;2922;53.482;10.006;2023-11-19T05:56:35;34.00;;;11.30;;
5791;SDS011;2922;53.482;10.006;2023-11-19T05:59:01;29.53;;;10.80;;
5791;SDS011;2922;53.482;10.006;2023-11-19T06:01:29;32.37;;;11.10;;
5791;SDS011;2922;53.482;10.006;2023-11-19T06:03:54;34.40;;;12.67;;
5791;SDS011;2922;53.482;10.006;2023-11-19T06:06:20;45.93;;;10.77;;
5791;SDS011;2922;53.482;10.006;2023-11-19T06:08:46;23.90;;;11.00;;
5791;SDS011;2922;53.482;10.006;2023-11-19T06:11:11;33.73;;;9.77;;
5791;SDS011;2922;53.482;10.006;2023-11-19T06:13:43;30.70;;;9.10;;
5791;SDS011;2922;53.482;10.006;2023-11-19T06:16:09;46.10;;;9.57;;
5791;SDS011;2922;53.482;10.006;2023-11-19T06:18:38;28.27;;;8.70;;
5791;SDS011;2922;53.482;10.006;2023-11-19T06:21:04;35.90;;;9.40;;
5791;SDS011;2922;53.482;10.006;2023-11-19T06:23:29;40.33;;;9.87;;
5791;SDS011;2922;53.482;10.006;2023-11-19T06:25:55;26.33;;;8.70;;
5791;SDS011;2922;53.482;10.006;2023-11-19T06:28:20;36.13;;;8.87;;
5791;SDS011;2922;53.482;10.006;2023-11-19T06:30:46;32.43;;;9.00;;
5791;SDS011;2922;53.482;10.006;2023-11-19T06:33:15;39.00;;;10.70;;
5791;SDS011;2922;53.482;10.006;2023-11-19T06:35:40;31.60;;;10.03;;
5791;SDS011;2922;53.482;10.006;2023-11-19T06:38:06;27.40;;;9.57;;
5791;SDS011;2922;53.482;10.006;2023-11-19T06:40:34;31.57;;;9.70;;
5791;SDS011;2922;53.482;10.006;2023-11-19T06:43:00;37.53;;;9.10;;
5791;SDS011;2922;53.482;10.006;2023-11-19T06:45:28;31.50;;;8.53;;
5791;SDS011;2922;53.482;10.006;2023-11-19T06:47:54;29.70;;;8.07;;
5791;SDS011;2922;53.482;10.006;2023-11-19T06:50:20;25.07;;;8.20;;
5791;SDS011;2922;53.482;10.006;2023-11-19T06:52:46;26.93;;;8.37;;
5791;SDS011;2922;53.482;10.006;2023-11-19T06:55:11;20.70;;;6.60;;
5791;SDS011;2922;53.482;10.006;2023-11-19T06:57:37;28.67;;;7.27;;
5791;SDS011;2922;53.482;10.006;2023-11-19T07:00:03;24.83;;;9.23;;
5791;SDS011;2922;53.482;10.006;2023-11-19T07:02:30;27.97;;;6.07;;
5791;SDS011;2922;53.482;10.006;2023-11-19T07:04:56;27.77;;;4.77;;
5791;SDS011;2922;53.482;10.006;2023-11-19T07:07:22;22.10;;;5.90;;
5791;SDS011;2922;53.482;10.006;2023-11-19T07:09:47;38.80;;;8.10;;
5791;SDS011;2922;53.482;10.006;2023-11-19T07:12:13;20.33;;;6.53;;
5791;SDS011;2922;53.482;10.006;2023-11-19T07:14:39;14.60;;;6.33;;
5791;SDS011;2922;53.482;10.006;2023-11-19T07:17:05;15.90;;;4.70;;
5791;SDS011;2922;53.482;10.006;2023-11-19T07:19:31;23.00;;;5.27;;
5791;SDS011;2922;53.482;10.006;2023-11-19T07:21:56;18.03;;;4.77;;
5791;SDS011;2922;53.482;10.006;2023-11-19T07:24:22;20.10;;;4.33;;
5791;SDS011;2922;53.482;10.006;2023-11-19T07:26:48;15.57;;;5.20;;
5791;SDS011;2922;53.482;10.006;2023-11-19T07:29:14;12.47;;;4.83;;
5791;SDS011;2922;53.482;10.006;2023-11-19T07:31:41;20.37;;;6.33;;
5791;SDS011;2922;53.482;10.006;2023-11-19T07:34:09;20.90;;;5.03;;
5791;SDS011;2922;53.482;10.006;2023-11-19T07:36:36;16.80;;;5.40;;
5791;SDS011;2922;53.482;10.006;2023-11-19T07:39:02;18.80;;;6.17;;
5791;SDS011;2922;53.482;10.006;2023-11-19T07:41:29;26.03;;;5.93;;
5791;SDS011;2922;53.482;10.006;2023-11-19T07:43:58;32.23;;;6.33;;
5791;SDS011;2922;53.482;10.006;2023-11-19T07:46:24;29.10;;;6.00;;
5791;SDS011;2922;53.482;10.006;2023-11-19T07:48:50;30.70;;;5.63;;
5791;SDS011;2922;53.482;10.006;2023-11-19T07:51:15;25.33;;;5.70;;
5791;SDS011;2922;53.482;10.006;2023-11-19T07:53:41;41.43;;;6.00;;
5791;SDS011;2922;53.482;10.006;2023-11-19T07:56:07;23.90;;;5.53;;
5791;SDS011;2922;53.482;10.006;2023-11-19T07:58:33;25.83;;;5.37;;
5791;SDS011;2922;53.482;10.006;2023-11-19T08:00:59;28.70;;;4.80;;
5791;SDS011;2922;53.482;10.006;2023-11-19T08:03:25;26.23;;;4.53;;
5791;SDS011;2922;53.482;10.006;2023-11-19T08:05:51;16.90;;;4.17;;
5791;SDS011;2922;53.482;10.006;2023-11-19T08:08:16;42.33;;;6.80;;
5791;SDS011;2922;53.482;10.006;2023-11-19T08:10:42;30.93;;;4.90;;
5791;SDS011;2922;53.482;10.006;2023-11-19T08:13:11;26.57;;;4.73;;
5791;SDS011;2922;53.482;10.006;2023-11-19T08:15:37;24.27;;;4.10;;
5791;SDS011;2922;53.482;10.006;2023-11-19T08:18:03;37.90;;;4.60;;
5791;SDS011;2922;53.482;10.006;2023-11-19T08:20:28;21.10;;;3.47;;
5791;SDS011;2922;53.482;10.006;2023-11-19T08:22:54;25.33;;;4.97;;
5791;SDS011;2922;53.482;10.006;2023-11-19T08:25:19;30.80;;;4.73;;
5791;SDS011;2922;53.482;10.006;2023-11-19T08:27:45;26.60;;;4.00;;
5791;SDS011;2922;53.482;10.006;2023-11-19T08:30:11;35.40;;;4.90;;
5791;SDS011;2922;53.482;10.006;2023-11-19T08:32:37;31.60;;;4.83;;
5791;SDS011;2922;53.482;10.006;2023-11-19T08:35:03;19.63;;;3.63;;
5791;SDS011;2922;53.482;10.006;2023-11-19T08:37:29;29.60;;;4.37;;
5791;SDS011;2922;53.482;10.006;2023-11-19T08:39:54;27.87;;;3.20;;
5791;SDS011;2922;53.482;10.006;2023-11-19T08:42:20;18.70;;;3.70;;
5791;SDS011;2922;53.482;10.006;2023-11-19T08:44:50;16.60;;;3.53;;
5791;SDS011;2922;53.482;10.006;2023-11-19T08:47:18;34.53;;;5.00;;
5791;SDS011;2922;53.482;10.006;2023-11-19T08:49:44;29.97;;;5.93;;
5791;SDS011;2922;53.482;10.006;2023-11-19T08:52:10;27.03;;;3.30;;
5791;SDS011;2922;53.482;10.006;2023-11-19T08:54:36;24.73;;;3.30;;
5791;SDS011;2922;53.482;10.006;2023-11-19T08:57:02;29.87;;;4.50;;
5791;SDS011;2922;53.482;10.006;2023-11-19T08:59:28;38.70;;;3.37;;
5791;SDS011;2922;53.482;10.006;2023-11-19T09:01:54;16.50;;;4.30;;
5791;SDS011;2922;53.482;10.006;2023-11-19T09:04:20;25.20;;;4.47;;
5791;SDS011;2922;53.482;10.006;2023-11-19T09:06:47;31.83;;;5.03;;
5791;SDS011;2922;53.482;10.006;2023-11-19T09:09:13;15.40;;;3.20;;
5791;SDS011;2922;53.482;10.006;2023-11-19T09:11:39;23.20;;;3.63;;
5791;SDS011;2922;53.482;10.006;2023-11-19T09:14:04;25.50;;;3.87;;
5791;SDS011;2922;53.482;10.006;2023-11-19T09:16:30;27.27;;;3.90;;
5791;SDS011;2922;53.482;10.006;2023-11-19T09:18:56;32.57;;;3.50;;
5791;SDS011;2922;53.482;10.006;2023-11-19T09:21:22;24.53;;;4.10;;
5791;SDS011;2922;53.482;10.006;2023-11-19T09:23:48;24.40;;;4.80;;
5791;SDS011;2922;53.482;10.006;2023-11-19T09:26:14;29.20;;;5.43;;
5791;SDS011;2922;53.482;10.006;2023-11-19T09:28:40;32.27;;;5.33;;
5791;SDS011;2922;53.482;10.006;2023-11-19T09:31:15;25.50;;;4.07;;
5791;SDS011;2922;53.482;10.006;2023-11-19T09:33:41;36.97;;;5.00;;
5791;SDS011;2922;53.482;10.006;2023-11-19T09:36:07;21.20;;;4.07;;
5791;SDS011;2922;53.482;10.006;2023-11-19T09:38:33;25.33;;;4.83;;
5791;SDS011;2922;53.482;10.006;2023-11-19T09:41:03;29.13;;;5.20;;
5791;SDS011;2922;53.482;10.006;2023-11-19T09:43:33;29.90;;;5.00;;
5791;SDS011;2922;53.482;10.006;2023-11-19T09:46:01;34.97;;;5.80;;
5791;SDS011;2922;53.482;10.006;2023-11-19T09:48:32;32.57;;;4.00;;
5791;SDS011;2922;53.482;10.006;2023-11-19T09:50:58;23.33;;;4.33;;
5791;SDS011;2922;53.482;10.006;2023-11-19T09:53:25;30.90;;;4.20;;
5791;SDS011;2922;53.482;10.006;2023-11-19T09:55:51;30.03;;;5.70;;
5791;SDS011;2922;53.482;10.006;2023-11-19T09:58:18;31.43;;;4.90;;
5791;SDS011;2922;53.482;10.006;2023-11-19T10:00:43;36.33;;;5.33;;
5791;SDS011;2922;53.482;10.006;2023-11-19T10:03:10;27.63;;;3.83;;
5791;SDS011;2922;53.482;10.006;2023-11-19T10:05:38;28.80;;;3.77;;
5791;SDS011;2922;53.482;10.006;2023-11-19T10:08:04;22.60;;;5.00;;
5791;SDS011;2922;53.482;10.006;2023-11-19T10:10:30;45.07;;;5.90;;
5791;SDS011;2922;53.482;10.006;2023-11-19T10:12:55;22.13;;;3.00;;
5791;SDS011;2922;53.482;10.006;2023-11-19T10:15:22;33.60;;;4.40;;
5791;SDS011;2922;53.482;10.006;2023-11-19T10:17:52;17.00;;;3.43;;
5791;SDS011;2922;53.482;10.006;2023-11-19T10:20:23;28.33;;;3.93;;
5791;SDS011;2922;53.482;10.006;2023-11-19T10:22:50;24.40;;;3.60;;
5791;SDS011;2922;53.482;10.006;2023-11-19T10:25:23;23.30;;;5.40;;
5791;SDS011;2922;53.482;10.006;2023-11-19T10:27:51;27.83;;;3.40;;
5791;SDS011;2922;53.482;10.006;2023-11-19T10:30:17;29.07;;;4.03;;
5791;SDS011;2922;53.482;10.006;2023-11-19T10:32:45;28.47;;;4.13;;
5791;SDS011;2922;53.482;10.006;2023-11-19T10:35:10;22.73;;;4.93;;
5791;SDS011;2922;53.482;10.006;2023-11-19T10:37:37;23.60;;;3.70;;
5791;SDS011;2922;53.482;10.006;2023-11-19T10:40:02;30.20;;;3.67;;
5791;SDS011;2922;53.482;10.006;2023-11-19T10:42:30;19.30;;;3.93;;
5791;SDS011;2922;53.482;10.006;2023-11-19T10:44:56;26.20;;;4.07;;
5791;SDS011;2922;53.482;10.006;2023-11-19T10:47:22;32.40;;;3.90;;
5791;SDS011;2922;53.482;10.006;2023-11-19T10:49:48;23.10;;;4.40;;
5791;SDS011;2922;53.482;10.006;2023-11-19T10:52:17;27.50;;;3.50;;
5791;SDS011;2922;53.482;10.006;2023-11-19T10:54:49;23.27;;;4.70;;
5791;SDS011;2922;53.482;10.006;2023-11-19T10:57:19;27.50;;;3.60;;
5791;SDS011;2922;53.482;10.006;2023-11-19T10:59:49;21.77;;;3.97;;
5791;SDS011;2922;53.482;10.006;2023-11-19T11:02:21;28.73;;;4.27;;
5791;SDS011;2922;53.482;10.006;2023-11-19T11:04:51;22.73;;;4.10;;
5791;SDS011;2922;53.482;10.006;2023-11-19T11:07:17;32.60;;;3.80;;
5791;SDS011;2922;53.482;10.006;2023-11-19T11:09:51;24.13;;;3.37;;
5791;SDS011;2922;53.482;10.006;2023-11-19T11:12:18;25.37;;;3.67;;
5791;SDS011;2922;53.482;10.006;2023-11-19T11:14:48;25.47;;;4.10;;
5791;SDS011;2922;53.482;10.006;2023-11-19T11:17:15;38.37;;;4.27;;
5791;SDS011;2922;53.482;10.006;2023-11-19T11:19:43;22.33;;;4.20;;
5791;SDS011;2922;53.482;10.006;2023-11-19T11:22:09;34.10;;;5.70;;
5791;SDS011;2922;53.482;10.006;2023-11-19T11:24:54;30.97;;;4.83;;
5791;SDS011;2922;53.482;10.006;2023-11-19T11:35:55;21.60;;;4.13;;
5791;SDS011;2922;53.482;10.006;2023-11-19T11:38:38;25.47;;;4.20;;
5791;SDS011;2922;53.482;10.006;2023-11-19T11:41:27;31.90;;;6.50;;
5791;SDS011;2922;53.482;10.006;2023-11-19T11:43:53;44.70;;;5.03;;
5791;SDS011;2922;53.482;10.006;2023-11-19T11:48:58;23.83;;;4.03;;
5791;SDS011;2922;53.482;10.006;2023-11-19T11:54:10;34.43;;;4.50;;
5791;SDS011;2922;53.482;10.006;2023-11-19T11:57:04;32.47;;;6.13;;
5791;SDS011;2922;53.482;10.006;2023-11-19T12:02:11;17.20;;;3.33;;
5791;SDS011;2922;53.482;10.006;2023-11-19T12:04:41;19.73;;;3.60;;
5791;SDS011;2922;53.482;10.006;2023-11-19T12:07:21;23.53;;;4.90;;
5791;SDS011;2922;53.482;10.006;2023-11-19T12:09:50;28.20;;;4.37;;
5791;SDS011;2922;53.482;10.006;2023-11-19T12:12:22;21.17;;;3.07;;
5791;SDS011;2922;53.482;10.006;2023-11-19T12:15:01;29.03;;;4.00;;
5791;SDS011;2922;53.482;10.006;2023-11-19T12:20:02;22.53;;;3.70;;
5791;SDS011;2922;53.482;10.006;2023-11-19T12:22:31;28.87;;;5.63;;
5791;SDS011;2922;53.482;10.006;2023-11-19T12:24:56;31.83;;;3.40;;
5791;SDS011;2922;53.482;10.006;2023-11-19T12:27:23;27.97;;;3.50;;
5791;SDS011;2922;53.482;10.006;2023-11-19T12:29:48;23.77;;;4.03;;
5791;SDS011;2922;53.482;10.006;2023-11-19T12:32:14;33.83;;;4.50;;
5791;SDS011;2922;53.482;10.006;2023-11-19T12:34:40;26.83;;;5.40;;
5791;SDS011;2922;53.482;10.006;2023-11-19T12:37:06;21.93;;;3.67;;
5791;SDS011;2922;53.482;10.006;2023-11-19T12:39:32;36.37;;;4.10;;
5791;SDS011;2922;53.482;10.006;2023-11-19T12:41:57;30.90;;;5.97;;
5791;SDS011;2922;53.482;10.006;2023-11-19T12:44:26;30.80;;;5.77;;
5791;SDS011;2922;53.482;10.006;2023-11-19T12:47:01;20.20;;;3.43;;
5791;SDS011;2922;53.482;10.006;2023-11-19T12:49:28;21.70;;;4.20;;
5791;SDS011;2922;53.482;10.006;2023-11-19T12:51:53;23.90;;;4.33;;
5791;SDS011;2922;53.482;10.006;2023-11-19T12:54:19;32.80;;;5.60;;
5791;SDS011;2922;53.482;10.006;2023-11-19T12:56:54;20.70;;;3.33;;
5791;SDS011;2922;53.482;10.006;2023-11-19T12:59:19;20.23;;;4.30;;
5791;SDS011;2922;53.482;10.006;2023-11-19T13:01:54;22.63;;;2.93;;
5791;SDS011;2922;53.482;10.006;2023-11-19T13:04:23;33.10;;;4.40;;
5791;SDS011;2922;53.482;10.006;2023-11-19T13:06:52;20.90;;;3.17;;
5791;SDS011;2922;53.482;10.006;2023-11-19T13:09:24;25.63;;;4.50;;
5791;SDS011;2922;53.482;10.006;2023-11-19T13:11:52;24.10;;;5.10;;
5791;SDS011;2922;53.482;10.006;2023-11-19T13:14:19;23.00;;;3.63;;
5791;SDS011;2922;53.482;10.006;2023-11-19T13:16:45;16.43;;;3.10;;
5791;SDS011;2922;53.482;10.006;2023-11-19T13:19:14;23.77;;;3.20;;
5791;SDS011;2922;53.482;10.006;2023-11-19T13:21:41;29.37;;;3.77;;
5791;SDS011;2922;53.482;10.006;2023-11-19T13:24:07;18.10;;;3.60;;
5791;SDS011;2922;53.482;10.006;2023-11-19T13:26:33;26.63;;;5.37;;
5791;SDS011;2922;53.482;10.006;2023-11-19T13:28:59;20.17;;;3.60;;
5791;SDS011;2922;53.482;10.006;2023-11-19T13:31:25;27.33;;;3.80;;
5791;SDS011;2922;53.482;10.006;2023-11-19T13:33:51;21.93;;;4.03;;
5791;SDS011;2922;53.482;10.006;2023-11-19T13:36:16;27.70;;;5.33;;
5791;SDS011;2922;53.482;10.006;2023-11-19T13:38:42;24.90;;;3.93;;
5791;SDS011;2922;53.482;10.006;2023-11-19T13:41:09;15.63;;;2.90;;
5791;SDS011;2922;53.482;10.006;2023-11-19T13:43:36;21.90;;;3.03;;
5791;SDS011;2922;53.482;10.006;2023-11-19T13:46:02;27.53;;;3.60;;
5791;SDS011;2922;53.482;10.006;2023-11-19T13:48:28;15.13;;;3.60;;
5791;SDS011;2922;53.482;10.006;2023-11-19T13:50:54;26.13;;;3.37;;
5791;SDS011;2922;53.482;10.006;2023-11-19T13:53:20;16.60;;;3.60;;
5791;SDS011;2922;53.482;10.006;2023-11-19T13:55:46;18.43;;;2.93;;
5791;SDS011;2922;53.482;10.006;2023-11-19T13:58:12;23.97;;;3.23;;
5791;SDS011;2922;53.482;10.006;2023-11-19T14:00:38;24.83;;;3.13;;
5791;SDS011;2922;53.482;10.006;2023-11-19T14:03:04;27.87;;;4.17;;
5791;SDS011;2922;53.482;10.006;2023-11-19T14:05:30;29.70;;;4.40;;
5791;SDS011;2922;53.482;10.006;2023-11-19T14:07:56;21.57;;;4.13;;
5791;SDS011;2922;53.482;10.006;2023-11-19T14:10:22;23.43;;;3.50;;
5791;SDS011;2922;53.482;10.006;2023-11-19T14:12:48;17.83;;;2.80;;
5791;SDS011;2922;53.482;10.006;2023-11-19T14:15:15;26.43;;;3.30;;
5791;SDS011;2922;53.482;10.006;2023-11-19T14:17:43;9.80;;;3.00;;
5791;SDS011;2922;53.482;10.006;2023-11-19T14:20:09;12.60;;;3.20;;
5791;SDS011;2922;53.482;10.006;2023-11-19T14:22:44;22.40;;;3.10;;
5791;SDS011;2922;53.482;10.006;2023-11-19T14:25:13;22.60;;;3.60;;
5791;SDS011;2922;53.482;10.006;2023-11-19T14:27:40;23.30;;;4.13;;
5791;SDS011;2922;53.482;10.006;2023-11-19T14:30:06;27.20;;;3.83;;
5791;SDS011;2922;53.482;10.006;2023-11-19T14:32:35;15.20;;;3.23;;
5791;SDS011;2922;53.482;10.006;2023-11-19T14:35:00;18.87;;;3.63;;
5791;SDS011;2922;53.482;10.006;2023-11-19T14:37:26;22.37;;;3.50;;
5791;SDS011;2922;53.482;10.006;2023-11-19T14:39:51;28.77;;;3.67;;
5791;SDS011;2922;53.482;10.006;2023-11-19T14:42:17;18.10;;;2.80;;
5791;SDS011;2922;53.482;10.006;2023-11-19T14:44:43;22.00;;;3.40;;
5791;SDS011;2922;53.482;10.006;2023-11-19T14:47:08;18.60;;;3.30;;
5791;SDS011;2922;53.482;10.006;2023-11-19T14:49:35;22.43;;;3.77;;
5791;SDS011;2922;53.482;10.006;2023-11-19T14:52:01;15.13;;;3.70;;
5791;SDS011;2922;53.482;10.006;2023-11-19T14:54:28;19.73;;;3.00;;
5791;SDS011;2922;53.482;10.006;2023-11-19T14:56:53;24.77;;;3.83;;
5791;SDS011;2922;53.482;10.006;2023-11-19T14:59:19;20.63;;;3.20;;
5791;SDS011;2922;53.482;10.006;2023-11-19T15:01:45;15.33;;;3.47;;
5791;SDS011;2922;53.482;10.006;2023-11-19T15:04:11;22.40;;;3.77;;
5791;SDS011;2922;53.482;10.006;2023-11-19T15:06:37;16.57;;;3.43;;
5791;SDS011;2922;53.482;10.006;2023-11-19T15:09:03;8.53;;;2.60;;
5791;SDS011;2922;53.482;10.006;2023-11-19T15:11:29;16.63;;;3.20;;